Time;durP1;ratioP1;P1;durP2;ratioP2;P2;SDS_P1;SDS_P2;PMS_P1;PMS_P2;Temp;Humidity;BMP_temperature;BMP_pressure;BME280_temperature;BME280_humidity;BME280_pressure;Samples;Min_cycle;Max_cycle;Signal;HPM_P1;HPM_P2
2022/10/16 00:00:42;;;;;;;15.43;9.93;;;;;;;13.33;78.21;98737.79;1627078;88;25736;-63
2022/10/16 00:03:09;;;;;;;16.40;10.55;;;;;;;13.33;78.35;98742.73;1627069;88;27407;-63
2022/10/16 00:05:42;;;;;;;17.57;11.43;;;;;;;13.33;78.36;98757.05;1626957;88;26099;-63
2022/10/16 00:08:10;;;;;;;16.42;10.63;;;;;;;13.30;78.33;98754.40;1626777;87;25614;-63
2022/10/16 00:10:37;;;;;;;16.25;11.12;;;;;;;13.27;78.46;98757.81;1627135;88;25738;-63
2022/10/16 00:13:04;;;;;;;15.38;10.23;;;;;;;13.27;78.46;98761.35;1627034;88;25681;-63
2022/10/16 00:15:33;;;;;;;15.30;9.75;;;;;;;13.24;78.60;98757.88;1627242;88;27502;-63
2022/10/16 00:17:59;;;;;;;16.87;10.38;;;;;;;13.23;78.65;98752.15;1626946;88;25903;-64
2022/10/16 00:20:26;;;;;;;15.80;10.28;;;;;;;13.24;78.63;98759.26;1627024;88;25455;-60
2022/10/16 00:22:52;;;;;;;12.73;9.33;;;;;;;13.25;78.85;98757.33;1626703;88;25787;-62
2022/10/16 00:25:18;;;;;;;15.93;10.20;;;;;;;13.27;78.77;98764.11;1627096;88;25629;-63
2022/10/16 00:27:44;;;;;;;18.30;10.00;;;;;;;13.28;78.68;98762.17;1626711;88;27468;-62
2022/10/16 00:30:11;;;;;;;15.50;10.35;;;;;;;13.28;78.80;98761.61;1626575;88;25502;-63
2022/10/16 00:32:37;;;;;;;16.60;10.70;;;;;;;13.29;78.80;98752.20;1627336;87;25500;-63
2022/10/16 00:35:04;;;;;;;16.42;10.25;;;;;;;13.33;78.81;98759.81;1634394;86;25701;-64
2022/10/16 00:37:31;;;;;;;19.23;11.05;;;;;;;13.33;78.82;98752.92;1650647;86;25711;-63
2022/10/16 00:39:57;;;;;;;19.20;11.40;;;;;;;13.30;78.95;98756.56;1650272;87;27473;-62
2022/10/16 00:42:23;;;;;;;20.75;11.73;;;;;;;13.27;79.14;98759.19;1650581;86;25757;-62
2022/10/16 00:44:57;;;;;;;18.90;11.18;;;;;;;13.23;79.24;98756.84;1650423;87;25640;-63
2022/10/16 00:47:48;;;;;;;20.17;12.37;;;;;;;13.20;79.62;98757.48;1650292;87;25784;-63
2022/10/16 00:50:31;;;;;;;17.27;12.15;;;;;;;13.15;79.43;98757.91;1643548;87;33101;-63
2022/10/16 00:52:59;;;;;;;18.02;11.90;;;;;;;13.15;79.50;98758.48;1650680;86;27455;-63
2022/10/16 00:55:26;;;;;;;17.98;11.60;;;;;;;13.13;79.54;98752.52;1650193;86;25462;-62
2022/10/16 00:57:52;;;;;;;18.15;11.95;;;;;;;13.13;79.57;98753.30;1650962;86;25486;-64
2022/10/16 01:00:23;;;;;;;19.20;12.35;;;;;;;13.12;79.58;98753.63;1647879;86;26484;-63
2022/10/16 01:02:58;;;;;;;21.65;11.50;;;;;;;13.11;79.62;98753.40;1650665;86;25668;-64
2022/10/16 01:05:42;;;;;;;22.25;11.95;;;;;;;13.09;79.69;98751.53;1650679;86;27451;-62
2022/10/16 01:09:00;;;;;;;19.62;11.63;;;;;;;13.04;79.97;98751.17;1649566;87;25606;-63
2022/10/16 01:11:40;;;;;;;18.95;11.83;;;;;;;12.99;80.41;98745.27;1650286;86;25519;-63
2022/10/16 01:14:27;;;;;;;16.30;11.30;;;;;;;12.96;80.05;98754.18;1650336;87;25735;-61
2022/10/16 01:17:15;;;;;;;17.92;11.08;;;;;;;12.94;80.03;98752.31;1650451;87;25715;-63
2022/10/16 01:20:05;;;;;;;20.92;11.88;;;;;;;12.91;80.28;98750.22;1650671;86;27427;-63
2022/10/16 01:22:57;;;;;;;24.00;11.70;;;;;;;12.86;80.49;98751.20;1650265;86;27185;-63
2022/10/16 01:25:50;;;;;;;20.68;12.43;;;;;;;12.83;80.42;98758.72;1593845;90;25563;-63
2022/10/16 01:28:21;;;;;;;20.97;12.70;;;;;;;12.78;80.52;98754.20;1593075;90;27891;-63
2022/10/16 01:30:51;;;;;;;20.02;12.37;;;;;;;12.71;80.65;98759.39;1593464;90;25698;-63
2022/10/16 01:33:24;;;;;;;29.25;13.80;;;;;;;12.64;81.11;98761.25;1593305;90;27490;-63
2022/10/16 01:35:58;;;;;;;19.23;11.83;;;;;;;12.58;81.06;98760.39;1590355;90;25927;-63
2022/10/16 01:38:38;;;;;;;19.27;11.73;;;;;;;12.53;81.09;98759.98;1587526;90;25750;-63
2022/10/16 01:41:33;;;;;;;16.65;11.40;;;;;;;12.50;81.19;98760.63;1587811;90;25857;-64
2022/10/16 01:44:13;;;;;;;19.85;12.68;;;;;;;12.47;81.42;98764.84;1587857;90;25744;-63
2022/10/16 01:46:43;;;;;;;17.77;11.48;;;;;;;12.45;81.24;98761.60;1587543;90;27645;-63
2022/10/16 01:49:11;;;;;;;19.73;12.07;;;;;;;12.47;81.12;98764.02;1587987;90;25736;-63
2022/10/16 01:51:38;;;;;;;18.80;11.80;;;;;;;12.47;80.92;98774.47;1587781;90;25881;-62
2022/10/16 01:54:08;;;;;;;21.45;13.00;;;;;;;12.41;80.58;98777.92;1587757;90;26738;-64
2022/10/16 01:56:36;;;;;;;22.25;12.65;;;;;;;12.33;80.91;98772.42;1587807;90;25768;-63
2022/10/16 01:59:07;;;;;;;21.10;12.98;;;;;;;12.32;80.67;98778.48;1587457;90;27420;-63
2022/10/16 02:01:37;;;;;;;20.80;12.93;;;;;;;12.25;80.97;98778.16;1586023;87;25595;-63
2022/10/16 02:04:17;;;;;;;20.72;12.80;;;;;;;12.27;81.01;98788.27;1644481;86;25442;-63
2022/10/16 02:06:44;;;;;;;21.23;12.75;;;;;;;12.22;80.91;98788.41;1643910;87;25690;-63
2022/10/16 02:09:10;;;;;;;20.77;13.15;;;;;;;12.09;81.07;98792.35;1644003;87;25639;-63
2022/10/16 02:11:36;;;;;;;22.48;13.55;;;;;;;12.07;81.33;98793.26;1644175;87;27357;-63
2022/10/16 02:14:06;;;;;;;21.52;13.05;;;;;;;12.01;81.45;98792.55;1644114;86;25506;-63
2022/10/16 02:16:46;;;;;;;20.20;13.15;;;;;;;11.97;81.58;98794.91;1643990;87;25640;-62
2022/10/16 02:19:15;;;;;;;23.20;13.93;;;;;;;11.94;81.69;98799.08;1644287;87;26190;-63
2022/10/16 02:21:49;;;;;;;19.00;13.30;;;;;;;11.91;81.80;98796.42;1644181;87;25446;-63
2022/10/16 02:24:26;;;;;;;22.42;13.38;;;;;;;11.91;81.88;98797.80;1644669;86;27602;-63
2022/10/16 02:26:58;;;;;;;23.35;13.68;;;;;;;11.94;82.00;98809.28;1643895;87;25495;-63
2022/10/16 02:29:26;;;;;;;23.57;13.55;;;;;;;12.01;81.76;98810.98;1644152;86;25463;-63
2022/10/16 02:32:04;;;;;;;20.20;11.55;;;;;;;12.03;81.55;98806.78;1644204;87;25820;-63
2022/10/16 02:34:33;;;;;;;21.10;12.85;;;;;;;12.03;81.71;98807.34;1644157;87;25467;-62
2022/10/16 02:37:01;;;;;;;20.45;12.88;;;;;;;11.96;81.91;98799.58;1643938;87;28099;-62
2022/10/16 02:39:29;;;;;;;20.15;12.30;;;;;;;11.93;82.09;98801.59;1644229;86;25823;-63
2022/10/16 02:41:55;;;;;;;24.40;12.95;;;;;;;11.89;82.49;98800.04;1644078;86;25719;-63
2022/10/16 02:44:21;;;;;;;19.75;12.58;;;;;;;11.89;82.61;98799.25;1644289;86;25732;-63
2022/10/16 02:46:48;;;;;;;20.12;12.23;;;;;;;11.87;82.45;98789.95;1643940;87;25855;-63
2022/10/16 02:49:14;;;;;;;18.50;11.40;;;;;;;11.84;82.52;98795.27;1644317;86;27401;-63
2022/10/16 02:51:40;;;;;;;16.32;10.30;;;;;;;11.83;82.94;98794.45;1643763;87;25677;-63
2022/10/16 02:54:06;;;;;;;17.95;11.00;;;;;;;11.85;82.99;98796.32;1643968;87;25502;-63
2022/10/16 02:56:33;;;;;;;17.32;10.60;;;;;;;11.88;83.27;98799.80;1643787;87;25885;-62
2022/10/16 02:58:59;;;;;;;20.05;11.15;;;;;;;11.92;83.27;98799.41;1644103;86;25605;-63
2022/10/16 03:01:26;;;;;;;18.52;11.20;;;;;;;11.94;83.33;98798.30;1643831;87;27419;-64
2022/10/16 03:03:52;;;;;;;21.23;10.40;;;;;;;11.96;83.48;98794.64;1643788;87;25622;-64
2022/10/16 03:06:18;;;;;;;18.32;11.22;;;;;;;12.00;83.54;98801.13;1644119;87;25510;-63
2022/10/16 03:08:44;;;;;;;21.12;10.98;;;;;;;12.06;83.18;98799.83;1644055;86;26606;-63
2022/10/16 03:11:10;;;;;;;18.90;10.08;;;;;;;12.09;83.66;98789.61;1643705;87;25491;-62
2022/10/16 03:13:36;;;;;;;19.27;10.23;;;;;;;12.15;83.37;98798.52;1644113;86;27467;-63
2022/10/16 03:16:04;;;;;;;18.45;10.65;;;;;;;12.20;82.98;98803.06;1643650;87;27062;-61
2022/10/16 03:18:30;;;;;;;18.80;10.50;;;;;;;12.23;83.24;98802.42;1643819;87;25636;-63
2022/10/16 03:20:56;;;;;;;19.52;11.00;;;;;;;12.27;83.06;98804.75;1644170;87;25768;-63
2022/10/16 03:23:22;;;;;;;18.02;10.90;;;;;;;12.32;82.91;98811.45;1643719;87;25439;-63
2022/10/16 03:25:48;;;;;;;21.20;10.82;;;;;;;12.38;82.73;98816.25;1643745;87;27441;-62
2022/10/16 03:28:15;;;;;;;21.82;11.45;;;;;;;12.43;82.78;98820.20;1643763;87;25500;-63
2022/10/16 03:30:41;;;;;;;20.92;11.75;;;;;;;12.49;82.58;98818.13;1644109;87;25483;-63
2022/10/16 03:33:07;;;;;;;19.25;11.78;;;;;;;12.53;82.51;98810.84;1643830;87;25725;-63
2022/10/16 03:35:33;;;;;;;20.72;12.78;;;;;;;12.58;82.45;98813.41;1641680;87;25467;-63
2022/10/16 03:37:59;;;;;;;22.20;11.90;;;;;;;12.62;82.31;98819.89;1626661;88;27389;-62
2022/10/16 03:40:26;;;;;;;22.37;11.83;;;;;;;12.63;82.28;98818.75;1627008;88;25456;-63
2022/10/16 03:42:54;;;;;;;20.57;11.73;;;;;;;12.63;82.26;98816.00;1626751;88;25571;-63
2022/10/16 03:45:20;;;;;;;23.25;11.30;;;;;;;12.64;82.31;98824.48;1626706;87;25523;-63
2022/10/16 03:47:47;;;;;;;19.55;11.08;;;;;;;12.62;82.11;98822.64;1627198;88;25446;-63
2022/10/16 03:50:14;;;;;;;17.95;10.15;;;;;;;12.66;81.94;98822.79;1626930;88;27690;-62
2022/10/16 03:52:40;;;;;;;17.23;10.55;;;;;;;12.67;81.83;98821.09;1626576;87;25345;-63
2022/10/16 03:55:08;;;;;;;18.02;10.43;;;;;;;12.71;81.74;98828.13;1626728;88;25704;-62
2022/10/16 03:57:34;;;;;;;110.75;69.27;;;;;;;12.73;81.56;98828.63;1626814;87;25785;-63
2022/10/16 04:00:00;;;;;;;38.48;23.47;;;;;;;12.75;81.43;98829.09;1626734;88;25444;-62
2022/10/16 04:02:27;;;;;;;75.92;42.95;;;;;;;12.80;81.34;98835.81;1626728;88;27465;-63
2022/10/16 04:04:53;;;;;;;82.95;46.30;;;;;;;12.81;81.21;98825.61;1626547;88;25967;-63
2022/10/16 04:07:19;;;;;;;30.55;18.65;;;;;;;12.80;81.11;98822.63;1627066;88;25630;-62
2022/10/16 04:09:45;;;;;;;26.60;14.70;;;;;;;12.74;80.91;98817.05;1626657;88;27876;-62
2022/10/16 04:12:11;;;;;;;26.77;14.63;;;;;;;12.57;80.93;98817.30;1626851;88;25629;-63
2022/10/16 04:14:37;;;;;;;23.22;12.78;;;;;;;12.35;81.12;98812.77;1627072;88;27444;-63
2022/10/16 04:17:03;;;;;;;24.27;13.75;;;;;;;12.21;81.62;98810.98;1626595;88;25613;-62
2022/10/16 04:19:30;;;;;;;27.52;17.32;;;;;;;12.21;81.87;98819.78;1626975;88;25637;-62
2022/10/16 04:21:56;;;;;;;23.80;13.40;;;;;;;12.20;81.52;98824.45;1627055;88;25800;-62
2022/10/16 04:24:22;;;;;;;21.30;12.70;;;;;;;12.16;81.31;98827.60;1627109;87;25643;-63
2022/10/16 04:26:49;;;;;;;19.17;11.97;;;;;;;12.03;81.28;98822.44;1627176;87;27577;-60
2022/10/16 04:29:15;;;;;;;20.00;12.65;;;;;;;11.92;81.59;98822.74;1626747;87;25878;-62
2022/10/16 04:31:41;;;;;;;20.77;12.40;;;;;;;11.90;81.90;98820.08;1627258;88;25507;-63
2022/10/16 04:34:17;;;;;;;22.67;12.47;;;;;;;11.94;81.97;98825.75;1626937;88;25679;-61
2022/10/16 04:36:48;;;;;;;21.02;12.10;;;;;;;11.90;81.74;98831.06;1638716;87;25605;-61
2022/10/16 04:39:22;;;;;;;20.80;11.53;;;;;;;11.81;81.66;98829.67;1650704;86;27549;-61
2022/10/16 04:41:53;;;;;;;25.50;13.22;;;;;;;11.72;81.87;98828.83;1650329;86;25688;-61
2022/10/16 04:44:24;;;;;;;22.25;14.20;;;;;;;11.64;82.16;98832.59;1650642;86;25625;-62
2022/10/16 04:46:51;;;;;;;23.15;14.53;;;;;;;11.54;82.26;98829.55;1650520;86;26451;-62
2022/10/16 04:49:18;;;;;;;23.18;12.98;;;;;;;11.48;82.56;98830.00;1650435;87;25696;-62
2022/10/16 04:51:44;;;;;;;18.32;12.43;;;;;;;11.45;82.82;98839.67;1650294;87;27455;-63
2022/10/16 04:54:11;;;;;;;21.62;13.32;;;;;;;11.44;82.66;98842.19;1650193;86;25635;-63
2022/10/16 04:56:43;;;;;;;26.02;14.18;;;;;;;11.38;82.67;98840.14;1650278;86;25676;-61
2022/10/16 04:59:05;;;;;;;25.55;14.87;;;;;;;11.29;82.76;98842.03;1649412;87;25657;-63
2022/10/16 05:01:31;;;;;;;22.62;14.63;;;;;;;11.22;83.52;98842.46;1650652;86;25447;-63
2022/10/16 05:03:58;;;;;;;39.80;24.65;;;;;;;11.24;83.40;98849.83;1650609;86;27488;-63
2022/10/16 05:06:24;;;;;;;32.25;21.25;;;;;;;11.24;83.39;98841.59;1650555;86;25929;-62
2022/10/16 05:08:50;;;;;;;27.80;16.95;;;;;;;11.27;83.63;98848.38;1650611;86;25719;-62
2022/10/16 05:11:16;;;;;;;27.32;16.95;;;;;;;11.27;83.74;98847.83;1650697;86;25771;-61
2022/10/16 05:13:42;;;;;;;25.10;15.55;;;;;;;11.28;83.70;98853.55;1650305;86;25625;-62
2022/10/16 05:16:08;;;;;;;26.68;15.80;;;;;;;11.33;84.10;98849.87;1650560;86;28305;-62
2022/10/16 05:18:34;;;;;;;44.58;26.80;;;;;;;11.40;84.00;98851.59;1650982;86;25581;-62
2022/10/16 05:21:01;;;;;;;32.25;17.90;;;;;;;11.46;84.01;98854.22;1650389;87;25739;-62
2022/10/16 05:23:27;;;;;;;31.52;18.07;;;;;;;11.54;84.16;98857.55;1650702;86;25802;-63
2022/10/16 05:25:57;;;;;;;33.70;19.90;;;;;;;11.62;84.24;98857.35;1650295;87;25629;-62
2022/10/16 05:28:26;;;;;;;15.00;10.25;;;;;;;11.76;83.97;98867.69;1650562;87;26647;-63
2022/10/16 05:30:52;;;;;;;14.55;9.15;;;;;;;11.91;83.48;98859.58;1649271;86;25687;-62
2022/10/16 05:33:28;;;;;;;12.03;8.83;;;;;;;12.05;83.01;98858.09;1650502;86;25529;-62
2022/10/16 05:36:01;;;;;;;11.95;8.23;;;;;;;12.17;82.60;98865.75;1620084;88;25696;-62
2022/10/16 05:38:34;;;;;;;15.58;10.98;;;;;;;12.27;82.22;98866.00;1628722;88;25515;-62
2022/10/16 05:41:04;;;;;;;15.32;10.82;;;;;;;12.37;82.09;98873.70;1628885;88;28783;-62
2022/10/16 05:43:38;;;;;;;17.75;10.23;;;;;;;12.44;81.84;98872.68;1629043;86;26090;-63
2022/10/16 05:46:09;;;;;;;10.98;7.85;;;;;;;12.54;81.52;98878.42;1628966;87;25613;-63
2022/10/16 05:48:35;;;;;;;11.65;7.72;;;;;;;12.62;81.17;98883.13;1635859;87;25759;-63
2022/10/16 05:51:06;;;;;;;13.00;8.80;;;;;;;12.71;81.01;98887.25;1631434;88;25662;-62
2022/10/16 05:53:35;;;;;;;19.75;9.98;;;;;;;12.77;80.89;98883.22;1635832;87;27551;-62
2022/10/16 05:56:03;;;;;;;15.85;11.18;;;;;;;12.82;80.65;98891.05;1608596;89;25550;-63
2022/10/16 05:58:33;;;;;;;17.17;9.18;;;;;;;12.88;80.35;98882.89;1629299;88;25505;-62
2022/10/16 06:01:06;;;;;;;17.85;10.00;;;;;;;12.93;80.34;98889.61;1636351;87;25696;-62
2022/10/16 06:03:34;;;;;;;14.98;9.80;;;;;;;12.98;80.12;98898.27;1635543;87;25470;-63
2022/10/16 06:06:17;;;;;;;11.03;7.58;;;;;;;13.04;79.58;98899.14;1628984;88;27396;-64
2022/10/16 06:08:45;;;;;;;9.20;6.78;;;;;;;13.11;79.33;98901.41;1635360;87;27168;-64
2022/10/16 06:11:15;;;;;;;14.23;8.48;;;;;;;13.23;78.79;98908.19;1608631;88;25655;-64
2022/10/16 06:13:42;;;;;;;13.35;8.10;;;;;;;13.33;79.01;98910.63;1628843;88;25597;-63
2022/10/16 06:16:10;;;;;;;12.15;7.70;;;;;;;13.45;78.49;98918.77;1635910;87;25442;-63
2022/10/16 06:18:36;;;;;;;11.80;8.60;;;;;;;13.57;78.39;98914.81;1608368;89;27528;-62
2022/10/16 06:21:16;;;;;;;15.93;9.98;;;;;;;13.72;78.15;98927.23;1628647;88;27173;-62
2022/10/16 06:23:42;;;;;;;13.98;8.88;;;;;;;13.86;76.73;98925.66;1608792;89;25633;-63
2022/10/16 06:26:13;;;;;;;39.45;20.35;;;;;;;14.00;76.72;98927.39;1628973;88;25916;-64
2022/10/16 06:28:40;;;;;;;34.23;17.32;;;;;;;14.17;76.88;98934.20;1628740;88;25641;-64
2022/10/16 06:31:10;;;;;;;13.58;9.38;;;;;;;14.33;76.11;98933.64;1629259;86;27463;-64
2022/10/16 06:34:08;;;;;;;16.55;8.73;;;;;;;14.52;75.71;98939.30;1635760;87;25869;-63
2022/10/16 06:36:27;;;;;;;21.05;10.63;;;;;;;14.66;75.91;98941.82;1607620;88;25644;-63
2022/10/16 06:38:54;;;;;;;17.37;10.35;;;;;;;14.82;75.85;98939.89;1681442;85;26390;-62
2022/10/16 06:41:22;;;;;;;73.50;42.10;;;;;;;14.92;75.68;98937.54;1681478;85;25425;-63
2022/10/16 06:43:50;;;;;;;24.00;15.05;;;;;;;15.01;74.73;98943.55;1681189;85;27459;-62
2022/10/16 06:46:19;;;;;;;16.62;9.78;;;;;;;15.05;74.63;98939.78;1681164;85;25630;-63
2022/10/16 06:48:46;;;;;;;16.93;10.75;;;;;;;15.10;72.91;98942.09;1681338;84;25633;-63
2022/10/16 06:51:16;;;;;;;16.48;8.50;;;;;;;15.15;72.88;98943.28;1681551;85;25716;-62
2022/10/16 06:53:48;;;;;;;16.35;8.48;;;;;;;15.16;72.44;98942.94;1681426;84;25579;-63
2022/10/16 06:56:22;;;;;;;15.38;8.93;;;;;;;15.30;72.78;98955.09;1650062;84;28048;-63
2022/10/16 06:58:50;;;;;;;17.05;9.98;;;;;;;15.38;73.05;98960.30;1630307;88;25733;-63
2022/10/16 07:01:18;;;;;;;11.75;7.87;;;;;;;15.41;72.66;98955.48;1630238;86;25473;-64
2022/10/16 07:03:46;;;;;;;22.13;13.50;;;;;;;15.45;71.48;98963.09;1630188;88;25804;-63
2022/10/16 07:06:17;;;;;;;15.03;8.98;;;;;;;15.47;73.04;98951.11;1630285;88;25663;-63
2022/10/16 07:08:46;;;;;;;12.13;7.97;;;;;;;15.47;73.04;98951.11;1630488;88;27624;-64
2022/10/16 07:11:16;;;;;;;12.80;8.90;;;;;;;15.57;72.65;98970.02;1630389;88;25501;-64
2022/10/16 07:13:44;;;;;;;14.60;9.73;;;;;;;15.59;73.28;98975.20;1630584;88;29934;-64
2022/10/16 07:16:20;;;;;;;12.23;8.98;;;;;;;15.61;72.94;98975.68;1630615;86;25764;-63
2022/10/16 07:18:48;;;;;;;11.95;9.28;;;;;;;15.65;73.39;98971.90;1630494;86;25607;-63
2022/10/16 07:21:20;;;;;;;17.07;11.73;;;;;;;15.72;72.89;98963.63;1630439;87;27729;-63
2022/10/16 07:23:52;;;;;;;13.68;9.90;;;;;;;15.76;72.29;98968.14;1630311;86;25685;-63
2022/10/16 07:26:18;;;;;;;11.85;7.65;;;;;;;15.77;71.67;98966.98;1630764;86;25669;-64
2022/10/16 07:28:45;;;;;;;19.00;9.75;;;;;;;15.88;72.14;98969.30;1630155;88;25717;-63
2022/10/16 07:31:14;;;;;;;19.20;11.35;;;;;;;15.96;70.66;98973.12;1630233;87;25491;-64
2022/10/16 07:33:44;;;;;;;18.07;10.65;;;;;;;16.02;70.47;98973.16;1630569;86;27487;-64
2022/10/16 07:36:12;;;;;;;22.22;14.35;;;;;;;16.13;70.06;98976.30;1630588;86;25778;-63
2022/10/16 07:38:38;;;;;;;19.48;13.58;;;;;;;16.23;71.07;98973.67;1636504;87;25454;-62
2022/10/16 07:41:07;;;;;;;11.15;8.00;;;;;;;16.36;70.61;98971.70;1638763;87;27862;-61
2022/10/16 07:43:34;;;;;;;27.50;16.23;;;;;;;16.40;70.35;98969.28;1639097;86;25603;-64
2022/10/16 07:46:01;;;;;;;14.13;10.23;;;;;;;16.58;70.15;98987.02;1638783;87;27477;-62
2022/10/16 07:48:30;;;;;;;39.60;23.32;;;;;;;16.67;70.33;98989.09;1638908;86;25494;-64
2022/10/16 07:51:05;;;;;;;23.45;15.10;;;;;;;16.79;70.25;98985.53;1635443;86;25623;-63
2022/10/16 07:53:33;;;;;;;15.48;10.15;;;;;;;16.89;70.43;98995.31;1639033;87;25782;-64
2022/10/16 07:56:01;;;;;;;15.70;10.20;;;;;;;17.00;68.78;99006.72;1638888;87;25693;-63
2022/10/16 07:58:28;;;;;;;22.22;13.22;;;;;;;17.14;69.56;99008.33;1639065;86;27609;-63
2022/10/16 08:00:56;;;;;;;20.80;14.13;;;;;;;17.22;68.49;99002.42;1638726;86;25710;-63
2022/10/16 08:03:23;;;;;;;20.68;12.80;;;;;;;17.29;68.61;99004.83;1639326;87;25594;-64
2022/10/16 08:05:50;;;;;;;45.65;26.17;;;;;;;17.35;68.33;99007.34;1638661;87;25728;-63
2022/10/16 08:08:18;;;;;;;51.50;25.72;;;;;;;17.37;67.39;99005.85;1639035;86;25691;-63
2022/10/16 08:10:45;;;;;;;42.45;21.93;;;;;;;17.33;66.87;99009.10;1639040;86;27373;-64
2022/10/16 08:13:14;;;;;;;32.33;17.23;;;;;;;17.29;67.35;98998.48;1638701;87;27174;-64
2022/10/16 08:15:39;;;;;;;42.73;19.17;;;;;;;17.27;66.22;98998.04;1638635;87;25463;-64
2022/10/16 08:18:06;;;;;;;55.78;25.20;;;;;;;17.27;66.51;98989.73;1638622;87;25825;-64
2022/10/16 08:20:33;;;;;;;93.30;35.10;;;;;;;17.30;66.77;98991.80;1638872;86;25614;-63
2022/10/16 08:23:03;;;;;;;54.58;41.15;;;;;;;17.31;66.14;98989.25;1639019;87;28724;-64
2022/10/16 08:25:29;;;;;;;15.98;11.10;;;;;;;17.38;66.27;98994.98;1638693;87;25458;-63
2022/10/16 08:27:56;;;;;;;17.77;12.63;;;;;;;17.57;65.47;98993.54;1639185;86;25501;-64
2022/10/16 08:30:24;;;;;;;14.75;10.20;;;;;;;17.96;64.56;98995.75;1638748;87;25849;-65
2022/10/16 08:32:50;;;;;;;26.17;17.90;;;;;;;18.49;63.92;98994.75;1638860;87;25670;-64
2022/10/16 08:35:17;;;;;;;11.22;8.75;;;;;;;18.96;62.55;98993.63;1639119;87;27640;-63
2022/10/16 08:37:44;;;;;;;16.50;9.98;;;;;;;19.46;61.73;98997.88;1636172;87;25493;-63
2022/10/16 08:40:31;;;;;;;21.95;14.65;;;;;;;19.88;59.75;98996.28;1630206;88;25747;-63
2022/10/16 08:43:26;;;;;;;18.85;9.50;;;;;;;20.22;59.75;98997.11;1629743;87;25704;-64
2022/10/16 08:46:26;;;;;;;56.50;21.97;;;;;;;20.51;57.43;99004.55;1630247;87;25491;-62
2022/10/16 08:48:55;;;;;;;246.03;97.57;;;;;;;20.83;58.66;99010.40;1630084;87;27487;-63
2022/10/16 08:51:29;;;;;;;147.50;52.60;;;;;;;21.19;57.64;99014.53;1619622;87;25765;-64
2022/10/16 08:54:27;;;;;;;45.50;18.23;;;;;;;21.42;55.82;99015.02;1620698;87;25739;-63
2022/10/16 08:56:57;;;;;;;63.50;21.80;;;;;;;21.63;56.04;99014.27;1621507;88;25791;-63
2022/10/16 08:59:23;;;;;;;25.02;12.65;;;;;;;21.73;53.58;99019.78;1606248;87;25789;-64
2022/10/16 09:01:52;;;;;;;12.40;7.65;;;;;;;21.79;53.60;99022.47;1615801;87;27550;-63
2022/10/16 09:04:46;;;;;;;29.92;14.80;;;;;;;22.12;53.29;99031.16;1610754;88;25822;-64
2022/10/16 09:07:30;;;;;;;25.88;13.28;;;;;;;22.43;53.61;99022.87;1612423;86;25752;-64
2022/10/16 09:10:13;;;;;;;33.78;16.32;;;;;;;22.78;51.34;99023.59;1623628;87;25937;-61
2022/10/16 09:12:51;;;;;;;18.00;9.73;;;;;;;22.86;52.51;99016.65;1633041;87;25690;-63
2022/10/16 09:15:34;;;;;;;14.20;8.00;;;;;;;22.99;49.59;99018.51;1632960;87;27621;-63
2022/10/16 09:18:21;;;;;;;14.33;9.43;;;;;;;22.85;49.48;99020.64;1634975;86;25657;-64
2022/10/16 09:21:07;;;;;;;19.23;10.68;;;;;;;22.74;50.74;99021.34;1635091;87;25472;-65
2022/10/16 09:23:37;;;;;;;10.85;7.67;;;;;;;22.67;48.62;99021.30;1634358;87;25698;-65
2022/10/16 09:26:05;;;;;;;12.15;10.25;;;;;;;22.81;50.74;99023.39;1635132;87;25480;-63
2022/10/16 09:28:32;;;;;;;11.12;8.63;;;;;;;22.72;50.03;99022.34;1634859;87;27429;-63
2022/10/16 09:30:58;;;;;;;12.00;9.15;;;;;;;22.65;49.25;99027.27;1635056;87;25696;-58
2022/10/16 09:33:29;;;;;;;15.88;12.07;;;;;;;22.73;49.36;99028.72;1634739;87;25489;-58
2022/10/16 09:36:00;;;;;;;14.18;9.23;;;;;;;22.70;50.21;99027.51;1634901;87;25874;-61
2022/10/16 09:38:34;;;;;;;14.60;12.47;;;;;;;22.84;50.41;99028.80;1634033;84;25520;-62
2022/10/16 09:41:14;;;;;;;10.95;8.43;;;;;;;23.13;50.08;99031.77;1633311;87;27853;-65
2022/10/16 09:43:57;;;;;;;9.15;7.72;;;;;;;23.33;49.23;99040.67;1633745;87;25532;-64
2022/10/16 09:46:34;;;;;;;11.05;7.78;;;;;;;23.56;50.40;99034.83;1629461;87;25799;-63
2022/10/16 09:49:25;;;;;;;23.22;10.65;;;;;;;24.06;49.08;99034.77;1633558;87;26710;-63
2022/10/16 09:52:14;;;;;;;14.15;9.00;;;;;;;24.51;49.29;99030.84;1630598;87;25434;-63
2022/10/16 09:54:59;;;;;;;17.40;10.15;;;;;;;24.84;48.13;99033.61;1633485;87;28356;-65
2022/10/16 09:57:27;;;;;;;7.65;5.58;;;;;;;25.01;47.07;99039.64;1632981;87;25623;-63
2022/10/16 09:59:58;;;;;;;7.35;5.70;;;;;;;25.22;45.22;99040.20;1633708;87;25497;-63
2022/10/16 10:02:31;;;;;;;8.10;5.62;;;;;;;25.28;46.18;99034.38;1633764;86;25775;-63
2022/10/16 10:04:58;;;;;;;9.35;6.35;;;;;;;25.36;45.26;99040.73;1631578;87;25648;-62
2022/10/16 10:07:29;;;;;;;17.98;9.68;;;;;;;25.44;46.46;99044.31;1633380;87;27477;-63
2022/10/16 10:09:57;;;;;;;6.25;5.65;;;;;;;25.33;45.61;99042.16;1633578;87;25551;-63
2022/10/16 10:12:35;;;;;;;7.15;6.33;;;;;;;25.12;46.07;99048.81;1633384;86;25658;-63
2022/10/16 10:15:09;;;;;;;7.67;6.20;;;;;;;25.08;46.11;99050.84;1633029;87;25494;-64
2022/10/16 10:17:48;;;;;;;9.70;6.20;;;;;;;24.90;46.01;99046.66;1633343;87;25456;-63
2022/10/16 10:20:27;;;;;;;8.90;6.15;;;;;;;24.64;45.90;99040.25;1633371;87;27415;-64
2022/10/16 10:22:55;;;;;;;86.70;41.92;;;;;;;24.36;45.67;99047.44;1633342;87;25578;-64
2022/10/16 10:25:29;;;;;;;9.13;6.25;;;;;;;23.88;46.29;99043.12;1633293;87;25461;-64
2022/10/16 10:28:10;;;;;;;32.73;14.30;;;;;;;23.74;47.87;99046.67;1633734;86;25702;-64
2022/10/16 10:30:47;;;;;;;11.22;8.00;;;;;;;23.63;48.36;99045.23;1633082;86;25754;-63
2022/10/16 10:33:37;;;;;;;10.68;7.25;;;;;;;23.45;48.50;99050.75;1622934;87;27442;-63
2022/10/16 10:36:24;;;;;;;9.55;6.17;;;;;;;23.14;48.70;99051.56;1634897;86;25684;-64
2022/10/16 10:39:00;;;;;;;7.42;5.60;;;;;;;22.83;49.99;99061.54;1626979;88;25455;-63
2022/10/16 10:41:38;;;;;;;11.20;8.80;;;;;;;22.63;50.13;99059.58;1623355;88;26510;-64
2022/10/16 10:44:38;;;;;;;9.85;8.65;;;;;;;22.41;50.66;99062.14;1627159;88;25635;-64
2022/10/16 10:47:29;;;;;;;9.63;8.10;;;;;;;22.30;51.91;99067.04;1626874;88;27601;-63
2022/10/16 10:50:40;;;;;;;17.37;14.45;;;;;;;22.40;52.71;99068.31;1617926;88;25784;-64
2022/10/16 10:53:29;;;;;;;10.53;7.67;;;;;;;22.43;53.32;99061.95;1626693;88;25690;-63
2022/10/16 10:56:10;;;;;;;9.73;7.40;;;;;;;22.38;54.02;99055.93;1626811;88;25779;-64
2022/10/16 10:58:50;;;;;;;8.25;7.17;;;;;;;22.38;54.27;99055.93;1619626;88;25737;-63
2022/10/16 11:01:22;;;;;;;;;;;;;;;22.41;54.71;99054.58;1621925;88;27450;-64
2022/10/16 11:04:18;;;;;;;10.78;7.22;;;;;;;22.46;54.21;99052.03;1618972;88;25580;-64
2022/10/16 11:06:50;;;;;;;11.08;8.48;;;;;;;22.55;53.28;99052.52;1578221;90;25742;-64
2022/10/16 11:09:26;;;;;;;10.72;7.10;;;;;;;22.58;53.27;99050.12;1577985;90;25689;-64
2022/10/16 11:12:19;;;;;;;13.18;9.33;;;;;;;22.51;52.51;99046.69;1578055;90;25733;-64
2022/10/16 11:14:56;;;;;;;10.08;6.83;;;;;;;22.27;52.99;99050.24;1576981;90;27431;-63
2022/10/16 11:17:28;;;;;;;12.05;7.75;;;;;;;21.99;53.42;99049.57;1557693;90;25786;-63
2022/10/16 11:20:02;;;;;;;10.40;8.20;;;;;;;21.90;54.03;99053.25;1576710;90;25777;-61
2022/10/16 11:22:34;;;;;;;9.95;7.58;;;;;;;21.87;54.92;99047.04;1577976;90;26338;-63
2022/10/16 11:25:21;;;;;;;8.15;6.65;;;;;;;21.96;54.71;99055.13;1578124;90;25561;-63
2022/10/16 11:28:13;;;;;;;9.43;6.10;;;;;;;21.85;54.10;99043.84;1578048;90;27439;-63
2022/10/16 11:31:12;;;;;;;11.33;6.78;;;;;;;21.74;53.76;99043.11;1578154;90;25772;-62
2022/10/16 11:33:49;;;;;;;7.92;6.53;;;;;;;21.73;54.46;99047.06;1577689;90;25726;-64
2022/10/16 11:36:39;;;;;;;10.50;6.67;;;;;;;21.74;54.37;99052.87;1581780;90;25830;-64
2022/10/16 11:39:10;;;;;;;12.63;8.30;;;;;;;21.69;54.31;99052.61;1635313;87;25582;-64
2022/10/16 11:42:02;;;;;;;12.70;8.95;;;;;;;21.76;54.75;99051.13;1643742;87;29518;-64
2022/10/16 11:44:53;;;;;;;15.35;9.93;;;;;;;21.77;54.62;99046.56;1643790;87;25705;-64